sensor_id;sensor_type;location;lat;lon;timestamp;P1;durP1;ratioP1;P2;durP2;ratioP2
26654;SDS011;14278;50.784;4.630;2023-04-01T00:00:51;3.70;;;0.97;;
26654;SDS011;14278;50.784;4.630;2023-04-01T00:03:18;1.00;;;0.60;;
26654;SDS011;14278;50.784;4.630;2023-04-01T00:05:44;1.43;;;0.70;;
26654;SDS011;14278;50.784;4.630;2023-04-01T00:08:11;1.03;;;0.40;;
26654;SDS011;14278;50.784;4.630;2023-04-01T00:10:37;1.33;;;0.60;;
26654;SDS011;14278;50.784;4.630;2023-04-01T00:13:03;0.70;;;0.53;;
26654;SDS011;14278;50.784;4.630;2023-04-01T00:15:30;8.07;;;0.70;;
26654;SDS011;14278;50.784;4.630;2023-04-01T00:17:55;1.27;;;0.63;;
26654;SDS011;14278;50.784;4.630;2023-04-01T00:20:21;1.33;;;0.50;;
26654;SDS011;14278;50.784;4.630;2023-04-01T00:22:47;1.33;;;0.80;;
26654;SDS011;14278;50.784;4.630;2023-04-01T00:25:13;2.10;;;0.70;;
26654;SDS011;14278;50.784;4.630;2023-04-01T00:27:40;1.07;;;0.70;;
26654;SDS011;14278;50.784;4.630;2023-04-01T00:30:06;9.03;;;0.80;;
26654;SDS011;14278;50.784;4.630;2023-04-01T00:32:33;0.40;;;0.40;;
26654;SDS011;14278;50.784;4.630;2023-04-01T00:34:59;0.70;;;0.70;;
26654;SDS011;14278;50.784;4.630;2023-04-01T00:37:25;0.40;;;0.37;;
26654;SDS011;14278;50.784;4.630;2023-04-01T00:39:52;0.90;;;0.63;;
26654;SDS011;14278;50.784;4.630;2023-04-01T00:42:19;0.53;;;0.43;;
26654;SDS011;14278;50.784;4.630;2023-04-01T00:44:45;0.30;;;0.30;;
26654;SDS011;14278;50.784;4.630;2023-04-01T00:47:18;2.67;;;0.57;;
26654;SDS011;14278;50.784;4.630;2023-04-01T00:49:46;2.93;;;0.87;;
26654;SDS011;14278;50.784;4.630;2023-04-01T00:52:17;1.17;;;0.40;;
26654;SDS011;14278;50.784;4.630;2023-04-01T00:54:47;1.20;;;0.50;;
26654;SDS011;14278;50.784;4.630;2023-04-01T00:57:19;0.63;;;0.47;;
26654;SDS011;14278;50.784;4.630;2023-04-01T01:00:05;0.50;;;0.50;;
26654;SDS011;14278;50.784;4.630;2023-04-01T01:02:35;1.97;;;0.63;;
26654;SDS011;14278;50.784;4.630;2023-04-01T01:05:00;0.67;;;0.50;;
26654;SDS011;14278;50.784;4.630;2023-04-01T01:12:52;1.37;;;0.40;;
26654;SDS011;14278;50.784;4.630;2023-04-01T01:15:30;0.30;;;0.30;;
26654;SDS011;14278;50.784;4.630;2023-04-01T01:21:18;2.37;;;0.50;;
26654;SDS011;14278;50.784;4.630;2023-04-01T01:32:31;0.43;;;0.40;;
26654;SDS011;14278;50.784;4.630;2023-04-01T01:38:02;0.40;;;0.30;;
26654;SDS011;14278;50.784;4.630;2023-04-01T01:40:31;0.30;;;0.30;;
26654;SDS011;14278;50.784;4.630;2023-04-01T01:43:00;0.40;;;0.30;;
26654;SDS011;14278;50.784;4.630;2023-04-01T01:45:34;0.80;;;0.40;;
26654;SDS011;14278;50.784;4.630;2023-04-01T01:48:04;0.40;;;0.40;;
26654;SDS011;14278;50.784;4.630;2023-04-01T01:50:32;0.67;;;0.60;;
26654;SDS011;14278;50.784;4.630;2023-04-01T01:53:01;0.50;;;0.50;;
26654;SDS011;14278;50.784;4.630;2023-04-01T01:55:33;0.40;;;0.40;;
26654;SDS011;14278;50.784;4.630;2023-04-01T01:58:02;1.53;;;0.60;;
26654;SDS011;14278;50.784;4.630;2023-04-01T02:00:33;2.10;;;1.00;;
26654;SDS011;14278;50.784;4.630;2023-04-01T02:03:01;0.43;;;0.40;;
26654;SDS011;14278;50.784;4.630;2023-04-01T02:05:27;0.40;;;0.40;;
26654;SDS011;14278;50.784;4.630;2023-04-01T02:08:12;4.07;;;0.90;;
26654;SDS011;14278;50.784;4.630;2023-04-01T02:10:42;0.50;;;0.50;;
26654;SDS011;14278;50.784;4.630;2023-04-01T02:13:17;0.40;;;0.40;;
26654;SDS011;14278;50.784;4.630;2023-04-01T02:15:49;6.40;;;0.70;;
26654;SDS011;14278;50.784;4.630;2023-04-01T02:18:20;0.80;;;0.80;;
26654;SDS011;14278;50.784;4.630;2023-04-01T02:20:47;0.57;;;0.57;;
26654;SDS011;14278;50.784;4.630;2023-04-01T02:23:14;1.30;;;0.87;;
26654;SDS011;14278;50.784;4.630;2023-04-01T02:25:41;3.43;;;1.33;;
26654;SDS011;14278;50.784;4.630;2023-04-01T02:28:08;4.27;;;1.27;;
26654;SDS011;14278;50.784;4.630;2023-04-01T02:30:37;0.80;;;0.80;;
26654;SDS011;14278;50.784;4.630;2023-04-01T02:33:05;1.23;;;1.00;;
26654;SDS011;14278;50.784;4.630;2023-04-01T02:35:33;0.73;;;0.73;;
26654;SDS011;14278;50.784;4.630;2023-04-01T02:38:02;1.00;;;0.80;;
26654;SDS011;14278;50.784;4.630;2023-04-01T02:40:28;1.67;;;1.00;;
26654;SDS011;14278;50.784;4.630;2023-04-01T02:42:54;1.80;;;0.93;;
26654;SDS011;14278;50.784;4.630;2023-04-01T02:45:20;0.70;;;0.70;;
26654;SDS011;14278;50.784;4.630;2023-04-01T02:47:46;0.30;;;0.30;;
26654;SDS011;14278;50.784;4.630;2023-04-01T02:50:12;1.67;;;0.97;;
26654;SDS011;14278;50.784;4.630;2023-04-01T02:52:38;1.20;;;1.10;;
26654;SDS011;14278;50.784;4.630;2023-04-01T02:55:04;0.97;;;0.93;;
26654;SDS011;14278;50.784;4.630;2023-04-01T02:57:30;1.90;;;1.13;;
26654;SDS011;14278;50.784;4.630;2023-04-01T02:59:56;1.70;;;0.80;;
26654;SDS011;14278;50.784;4.630;2023-04-01T03:02:22;0.70;;;0.70;;
26654;SDS011;14278;50.784;4.630;2023-04-01T03:04:48;1.60;;;1.20;;
26654;SDS011;14278;50.784;4.630;2023-04-01T03:07:14;0.60;;;0.60;;
26654;SDS011;14278;50.784;4.630;2023-04-01T03:09:40;1.57;;;0.90;;
26654;SDS011;14278;50.784;4.630;2023-04-01T03:12:06;0.80;;;0.80;;
26654;SDS011;14278;50.784;4.630;2023-04-01T03:14:32;2.13;;;0.80;;
26654;SDS011;14278;50.784;4.630;2023-04-01T03:16:58;1.13;;;1.03;;
26654;SDS011;14278;50.784;4.630;2023-04-01T03:19:24;0.87;;;0.80;;
26654;SDS011;14278;50.784;4.630;2023-04-01T03:21:50;1.00;;;0.80;;
26654;SDS011;14278;50.784;4.630;2023-04-01T03:24:16;1.27;;;1.17;;
26654;SDS011;14278;50.784;4.630;2023-04-01T03:26:42;0.77;;;0.70;;
26654;SDS011;14278;50.784;4.630;2023-04-01T03:29:08;2.53;;;1.17;;
26654;SDS011;14278;50.784;4.630;2023-04-01T03:31:34;2.67;;;0.90;;
26654;SDS011;14278;50.784;4.630;2023-04-01T03:34:00;1.23;;;1.13;;
26654;SDS011;14278;50.784;4.630;2023-04-01T03:36:26;0.77;;;0.77;;
26654;SDS011;14278;50.784;4.630;2023-04-01T03:38:52;2.97;;;1.53;;
26654;SDS011;14278;50.784;4.630;2023-04-01T03:41:18;4.83;;;1.37;;
26654;SDS011;14278;50.784;4.630;2023-04-01T03:43:44;3.67;;;1.87;;
26654;SDS011;14278;50.784;4.630;2023-04-01T03:46:10;1.70;;;1.20;;
26654;SDS011;14278;50.784;4.630;2023-04-01T03:48:36;1.23;;;1.03;;
26654;SDS011;14278;50.784;4.630;2023-04-01T03:51:05;3.33;;;1.57;;
26654;SDS011;14278;50.784;4.630;2023-04-01T03:53:32;1.27;;;1.17;;
26654;SDS011;14278;50.784;4.630;2023-04-01T03:55:58;2.63;;;1.73;;
26654;SDS011;14278;50.784;4.630;2023-04-01T03:58:23;2.10;;;1.63;;
26654;SDS011;14278;50.784;4.630;2023-04-01T04:00:49;1.60;;;1.50;;
26654;SDS011;14278;50.784;4.630;2023-04-01T04:03:15;13.10;;;1.90;;
26654;SDS011;14278;50.784;4.630;2023-04-01T04:05:47;2.10;;;1.47;;
26654;SDS011;14278;50.784;4.630;2023-04-01T04:08:14;3.60;;;1.57;;
26654;SDS011;14278;50.784;4.630;2023-04-01T04:10:41;2.10;;;1.50;;
26654;SDS011;14278;50.784;4.630;2023-04-01T04:13:07;3.90;;;1.83;;
26654;SDS011;14278;50.784;4.630;2023-04-01T04:15:33;2.20;;;2.00;;
26654;SDS011;14278;50.784;4.630;2023-04-01T04:17:59;1.30;;;1.20;;
26654;SDS011;14278;50.784;4.630;2023-04-01T04:20:25;1.60;;;1.50;;
26654;SDS011;14278;50.784;4.630;2023-04-01T04:22:51;1.77;;;1.60;;
26654;SDS011;14278;50.784;4.630;2023-04-01T04:25:16;3.60;;;1.93;;
26654;SDS011;14278;50.784;4.630;2023-04-01T04:27:43;2.33;;;1.93;;
26654;SDS011;14278;50.784;4.630;2023-04-01T04:30:09;3.57;;;2.33;;
26654;SDS011;14278;50.784;4.630;2023-04-01T04:32:35;2.00;;;1.80;;
26654;SDS011;14278;50.784;4.630;2023-04-01T04:35:02;1.70;;;1.50;;
26654;SDS011;14278;50.784;4.630;2023-04-01T04:37:28;1.57;;;1.40;;
26654;SDS011;14278;50.784;4.630;2023-04-01T04:39:54;2.43;;;1.90;;
26654;SDS011;14278;50.784;4.630;2023-04-01T04:42:20;3.37;;;2.17;;
26654;SDS011;14278;50.784;4.630;2023-04-01T04:44:46;1.90;;;1.70;;
26654;SDS011;14278;50.784;4.630;2023-04-01T04:47:12;2.07;;;1.27;;
26654;SDS011;14278;50.784;4.630;2023-04-01T04:49:37;5.50;;;1.83;;
26654;SDS011;14278;50.784;4.630;2023-04-01T04:52:04;1.30;;;1.20;;
26654;SDS011;14278;50.784;4.630;2023-04-01T04:54:29;2.50;;;1.40;;
26654;SDS011;14278;50.784;4.630;2023-04-01T04:56:55;5.00;;;1.43;;
26654;SDS011;14278;50.784;4.630;2023-04-01T04:59:21;2.10;;;1.30;;
26654;SDS011;14278;50.784;4.630;2023-04-01T05:01:47;1.23;;;1.23;;
26654;SDS011;14278;50.784;4.630;2023-04-01T05:04:13;2.23;;;1.33;;
26654;SDS011;14278;50.784;4.630;2023-04-01T05:06:39;1.20;;;1.10;;
26654;SDS011;14278;50.784;4.630;2023-04-01T05:09:05;1.67;;;1.57;;
26654;SDS011;14278;50.784;4.630;2023-04-01T05:11:31;0.83;;;0.80;;
26654;SDS011;14278;50.784;4.630;2023-04-01T05:13:56;1.33;;;1.23;;
26654;SDS011;14278;50.784;4.630;2023-04-01T05:16:23;2.27;;;1.33;;
26654;SDS011;14278;50.784;4.630;2023-04-01T05:18:49;1.37;;;1.27;;
26654;SDS011;14278;50.784;4.630;2023-04-01T05:21:15;1.90;;;1.23;;
26654;SDS011;14278;50.784;4.630;2023-04-01T05:23:41;5.20;;;1.37;;
26654;SDS011;14278;50.784;4.630;2023-04-01T05:26:09;1.60;;;1.50;;
26654;SDS011;14278;50.784;4.630;2023-04-01T05:28:37;1.87;;;1.23;;
26654;SDS011;14278;50.784;4.630;2023-04-01T05:31:03;3.87;;;1.47;;
26654;SDS011;14278;50.784;4.630;2023-04-01T05:33:30;2.50;;;1.53;;
26654;SDS011;14278;50.784;4.630;2023-04-01T05:35:57;1.53;;;1.27;;
26654;SDS011;14278;50.784;4.630;2023-04-01T05:38:34;2.53;;;1.60;;
26654;SDS011;14278;50.784;4.630;2023-04-01T05:41:01;1.70;;;1.10;;
26654;SDS011;14278;50.784;4.630;2023-04-01T05:43:28;1.07;;;0.97;;
26654;SDS011;14278;50.784;4.630;2023-04-01T05:45:55;2.00;;;1.60;;
26654;SDS011;14278;50.784;4.630;2023-04-01T05:48:21;1.30;;;1.20;;
26654;SDS011;14278;50.784;4.630;2023-04-01T05:50:47;2.33;;;1.80;;
26654;SDS011;14278;50.784;4.630;2023-04-01T05:53:13;1.37;;;1.27;;
26654;SDS011;14278;50.784;4.630;2023-04-01T05:55:39;2.73;;;2.13;;
26654;SDS011;14278;50.784;4.630;2023-04-01T05:58:05;1.60;;;1.20;;
26654;SDS011;14278;50.784;4.630;2023-04-01T06:00:31;1.80;;;1.60;;
26654;SDS011;14278;50.784;4.630;2023-04-01T06:02:58;3.93;;;2.37;;
26654;SDS011;14278;50.784;4.630;2023-04-01T06:05:27;2.30;;;1.80;;
26654;SDS011;14278;50.784;4.630;2023-04-01T06:08:01;1.77;;;1.43;;
26654;SDS011;14278;50.784;4.630;2023-04-01T06:13:18;2.47;;;1.40;;
26654;SDS011;14278;50.784;4.630;2023-04-01T06:35:20;1.97;;;1.70;;
26654;SDS011;14278;50.784;4.630;2023-04-01T06:38:03;2.97;;;2.27;;
26654;SDS011;14278;50.784;4.630;2023-04-01T06:40:51;2.20;;;1.50;;
26654;SDS011;14278;50.784;4.630;2023-04-01T06:54:11;2.23;;;2.03;;
26654;SDS011;14278;50.784;4.630;2023-04-01T06:56:44;3.90;;;2.47;;
26654;SDS011;14278;50.784;4.630;2023-04-01T06:59:12;2.00;;;1.70;;
26654;SDS011;14278;50.784;4.630;2023-04-01T07:01:45;3.17;;;2.50;;
26654;SDS011;14278;50.784;4.630;2023-04-01T07:04:32;2.70;;;2.30;;
26654;SDS011;14278;50.784;4.630;2023-04-01T07:07:52;4.77;;;2.80;;
26654;SDS011;14278;50.784;4.630;2023-04-01T07:10:17;3.60;;;2.87;;
26654;SDS011;14278;50.784;4.630;2023-04-01T07:12:57;2.17;;;1.87;;
26654;SDS011;14278;50.784;4.630;2023-04-01T07:15:30;2.20;;;2.00;;
26654;SDS011;14278;50.784;4.630;2023-04-01T07:18:05;2.63;;;1.77;;
26654;SDS011;14278;50.784;4.630;2023-04-01T07:20:39;1.93;;;1.70;;
26654;SDS011;14278;50.784;4.630;2023-04-01T07:23:15;2.57;;;1.77;;
26654;SDS011;14278;50.784;4.630;2023-04-01T07:25:51;1.70;;;1.50;;
26654;SDS011;14278;50.784;4.630;2023-04-01T07:28:18;1.50;;;1.40;;
26654;SDS011;14278;50.784;4.630;2023-04-01T07:30:49;2.80;;;1.50;;
26654;SDS011;14278;50.784;4.630;2023-04-01T07:33:25;1.90;;;1.30;;
26654;SDS011;14278;50.784;4.630;2023-04-01T07:36:13;0.90;;;0.90;;
26654;SDS011;14278;50.784;4.630;2023-04-01T07:39:04;1.13;;;1.00;;
26654;SDS011;14278;50.784;4.630;2023-04-01T07:41:41;1.33;;;1.07;;
26654;SDS011;14278;50.784;4.630;2023-04-01T07:44:34;2.00;;;1.10;;
26654;SDS011;14278;50.784;4.630;2023-04-01T07:52:48;1.20;;;1.10;;
26654;SDS011;14278;50.784;4.630;2023-04-01T07:55:24;1.10;;;1.00;;
26654;SDS011;14278;50.784;4.630;2023-04-01T08:03:47;2.33;;;1.20;;
26654;SDS011;14278;50.784;4.630;2023-04-01T08:13:53;0.43;;;0.43;;
26654;SDS011;14278;50.784;4.630;2023-04-01T08:19:24;0.40;;;0.40;;
26654;SDS011;14278;50.784;4.630;2023-04-01T08:22:21;0.40;;;0.40;;
26654;SDS011;14278;50.784;4.630;2023-04-01T08:24:52;0.67;;;0.60;;
26654;SDS011;14278;50.784;4.630;2023-04-01T08:27:26;0.20;;;0.20;;
26654;SDS011;14278;50.784;4.630;2023-04-01T08:32:57;0.40;;;0.33;;
26654;SDS011;14278;50.784;4.630;2023-04-01T08:35:58;0.40;;;0.40;;
26654;SDS011;14278;50.784;4.630;2023-04-01T08:38:32;0.43;;;0.40;;
26654;SDS011;14278;50.784;4.630;2023-04-01T08:54:48;0.43;;;0.43;;
26654;SDS011;14278;50.784;4.630;2023-04-01T09:00:40;1.43;;;1.23;;
26654;SDS011;14278;50.784;4.630;2023-04-01T09:03:37;19.80;;;13.93;;
26654;SDS011;14278;50.784;4.630;2023-04-01T09:09:05;7.83;;;5.20;;
26654;SDS011;14278;50.784;4.630;2023-04-01T09:12:12;1.30;;;0.60;;
26654;SDS011;14278;50.784;4.630;2023-04-01T09:17:55;0.60;;;0.60;;
26654;SDS011;14278;50.784;4.630;2023-04-01T09:28:44;0.50;;;0.43;;
26654;SDS011;14278;50.784;4.630;2023-04-01T09:31:14;0.40;;;0.40;;
26654;SDS011;14278;50.784;4.630;2023-04-01T09:52:06;0.90;;;0.60;;
26654;SDS011;14278;50.784;4.630;2023-04-01T10:06:06;0.77;;;0.70;;
26654;SDS011;14278;50.784;4.630;2023-04-01T10:19:35;0.60;;;0.60;;
26654;SDS011;14278;50.784;4.630;2023-04-01T10:25:10;0.60;;;0.60;;
26654;SDS011;14278;50.784;4.630;2023-04-01T10:42:34;0.50;;;0.50;;
26654;SDS011;14278;50.784;4.630;2023-04-01T10:45:35;1.10;;;0.90;;
26654;SDS011;14278;50.784;4.630;2023-04-01T10:48:28;0.40;;;0.40;;
26654;SDS011;14278;50.784;4.630;2023-04-01T11:22:32;0.40;;;0.40;;
26654;SDS011;14278;50.784;4.630;2023-04-01T11:25:36;0.30;;;0.30;;
26654;SDS011;14278;50.784;4.630;2023-04-01T11:28:27;1.30;;;0.60;;
26654;SDS011;14278;50.784;4.630;2023-04-01T11:31:11;0.27;;;0.27;;
26654;SDS011;14278;50.784;4.630;2023-04-01T11:33:49;1.50;;;0.57;;
26654;SDS011;14278;50.784;4.630;2023-04-01T11:39:16;0.70;;;0.63;;
26654;SDS011;14278;50.784;4.630;2023-04-01T11:48:01;1.50;;;0.87;;
26654;SDS011;14278;50.784;4.630;2023-04-01T11:50:45;0.40;;;0.30;;
26654;SDS011;14278;50.784;4.630;2023-04-01T11:53:18;1.63;;;0.70;;
26654;SDS011;14278;50.784;4.630;2023-04-01T11:59:27;0.50;;;0.50;;
26654;SDS011;14278;50.784;4.630;2023-04-01T12:13:48;0.50;;;0.50;;
26654;SDS011;14278;50.784;4.630;2023-04-01T12:16:29;0.63;;;0.63;;
26654;SDS011;14278;50.784;4.630;2023-04-01T12:27:35;0.83;;;0.83;;
26654;SDS011;14278;50.784;4.630;2023-04-01T12:36:13;0.60;;;0.60;;
26654;SDS011;14278;50.784;4.630;2023-04-01T12:41:53;0.40;;;0.40;;
26654;SDS011;14278;50.784;4.630;2023-04-01T13:11:31;0.63;;;0.63;;
26654;SDS011;14278;50.784;4.630;2023-04-01T13:14:08;0.70;;;0.70;;
26654;SDS011;14278;50.784;4.630;2023-04-01T13:19:40;0.97;;;0.70;;
26654;SDS011;14278;50.784;4.630;2023-04-01T13:25:20;0.80;;;0.73;;
26654;SDS011;14278;50.784;4.630;2023-04-01T13:27:59;1.10;;;1.00;;
26654;SDS011;14278;50.784;4.630;2023-04-01T13:30:47;0.73;;;0.73;;
26654;SDS011;14278;50.784;4.630;2023-04-01T13:33:27;0.77;;;0.77;;
26654;SDS011;14278;50.784;4.630;2023-04-01T13:41:36;1.43;;;0.93;;
26654;SDS011;14278;50.784;4.630;2023-04-01T13:44:09;0.77;;;0.77;;
26654;SDS011;14278;50.784;4.630;2023-04-01T13:49:43;5.43;;;1.13;;
26654;SDS011;14278;50.784;4.630;2023-04-01T13:55:09;0.63;;;0.63;;
26654;SDS011;14278;50.784;4.630;2023-04-01T14:03:14;0.60;;;0.60;;
26654;SDS011;14278;50.784;4.630;2023-04-01T14:17:15;0.67;;;0.60;;
26654;SDS011;14278;50.784;4.630;2023-04-01T14:23:06;1.40;;;0.50;;
26654;SDS011;14278;50.784;4.630;2023-04-01T14:28:49;0.43;;;0.43;;
26654;SDS011;14278;50.784;4.630;2023-04-01T14:37:55;0.57;;;0.57;;
26654;SDS011;14278;50.784;4.630;2023-04-01T14:49:00;0.40;;;0.37;;
26654;SDS011;14278;50.784;4.630;2023-04-01T14:56:49;0.47;;;0.47;;
26654;SDS011;14278;50.784;4.630;2023-04-01T15:04:46;0.70;;;0.70;;
26654;SDS011;14278;50.784;4.630;2023-04-01T15:17:58;1.13;;;0.50;;
26654;SDS011;14278;50.784;4.630;2023-04-01T15:20:39;0.40;;;0.40;;
26654;SDS011;14278;50.784;4.630;2023-04-01T15:23:47;0.40;;;0.40;;
26654;SDS011;14278;50.784;4.630;2023-04-01T15:26:29;0.40;;;0.40;;
26654;SDS011;14278;50.784;4.630;2023-04-01T15:29:23;0.47;;;0.33;;
26654;SDS011;14278;50.784;4.630;2023-04-01T15:35:38;0.40;;;0.40;;
26654;SDS011;14278;50.784;4.630;2023-04-01T15:38:40;0.67;;;0.60;;
26654;SDS011;14278;50.784;4.630;2023-04-01T15:43:51;0.50;;;0.50;;
26654;SDS011;14278;50.784;4.630;2023-04-01T15:59:41;0.30;;;0.30;;
26654;SDS011;14278;50.784;4.630;2023-04-01T16:13:00;0.37;;;0.37;;
26654;SDS011;14278;50.784;4.630;2023-04-01T16:24:30;0.30;;;0.30;;
26654;SDS011;14278;50.784;4.630;2023-04-01T16:35:56;0.30;;;0.30;;
26654;SDS011;14278;50.784;4.630;2023-04-01T16:41:00;0.30;;;0.30;;
26654;SDS011;14278;50.784;4.630;2023-04-01T16:43:52;0.33;;;0.33;;
26654;SDS011;14278;50.784;4.630;2023-04-01T16:46:32;1.90;;;0.70;;
26654;SDS011;14278;50.784;4.630;2023-04-01T16:51:46;0.40;;;0.40;;
26654;SDS011;14278;50.784;4.630;2023-04-01T17:02:12;0.40;;;0.40;;
26654;SDS011;14278;50.784;4.630;2023-04-01T17:04:47;1.70;;;0.40;;
26654;SDS011;14278;50.784;4.630;2023-04-01T17:07:33;0.97;;;0.40;;
26654;SDS011;14278;50.784;4.630;2023-04-01T17:12:47;0.37;;;0.37;;
26654;SDS011;14278;50.784;4.630;2023-04-01T17:24:57;0.83;;;0.73;;
26654;SDS011;14278;50.784;4.630;2023-04-01T17:35:53;0.60;;;0.60;;
26654;SDS011;14278;50.784;4.630;2023-04-01T17:54:41;0.40;;;0.40;;
26654;SDS011;14278;50.784;4.630;2023-04-01T18:00:50;0.97;;;0.87;;
26654;SDS011;14278;50.784;4.630;2023-04-01T18:06:21;0.97;;;0.80;;
26654;SDS011;14278;50.784;4.630;2023-04-01T18:20:51;0.97;;;0.87;;
26654;SDS011;14278;50.784;4.630;2023-04-01T18:23:56;0.60;;;0.60;;
26654;SDS011;14278;50.784;4.630;2023-04-01T18:27:37;0.70;;;0.70;;
26654;SDS011;14278;50.784;4.630;2023-04-01T18:40:43;3.20;;;1.00;;
26654;SDS011;14278;50.784;4.630;2023-04-01T18:46:16;0.90;;;0.80;;
26654;SDS011;14278;50.784;4.630;2023-04-01T18:51:38;0.83;;;0.83;;
26654;SDS011;14278;50.784;4.630;2023-04-01T18:56:44;1.70;;;1.10;;
26654;SDS011;14278;50.784;4.630;2023-04-01T18:59:32;1.27;;;1.17;;
26654;SDS011;14278;50.784;4.630;2023-04-01T19:02:24;1.40;;;1.30;;
26654;SDS011;14278;50.784;4.630;2023-04-01T19:05:07;1.60;;;1.50;;
26654;SDS011;14278;50.784;4.630;2023-04-01T19:07:48;1.53;;;1.43;;
26654;SDS011;14278;50.784;4.630;2023-04-01T19:13:20;1.60;;;1.50;;
26654;SDS011;14278;50.784;4.630;2023-04-01T19:16:06;1.50;;;1.40;;
26654;SDS011;14278;50.784;4.630;2023-04-01T19:18:49;1.67;;;1.57;;
26654;SDS011;14278;50.784;4.630;2023-04-01T19:38:12;5.00;;;3.00;;
26654;SDS011;14278;50.784;4.630;2023-04-01T19:48:48;5.10;;;2.67;;
26654;SDS011;14278;50.784;4.630;2023-04-01T19:51:37;2.20;;;2.00;;
26654;SDS011;14278;50.784;4.630;2023-04-01T19:59:52;2.67;;;2.47;;
26654;SDS011;14278;50.784;4.630;2023-04-01T20:08:20;2.47;;;1.93;;
26654;SDS011;14278;50.784;4.630;2023-04-01T20:22:20;1.97;;;1.57;;
26654;SDS011;14278;50.784;4.630;2023-04-01T20:24:50;1.93;;;1.67;;
26654;SDS011;14278;50.784;4.630;2023-04-01T20:27:23;6.00;;;1.90;;
26654;SDS011;14278;50.784;4.630;2023-04-01T20:44:31;1.90;;;1.80;;
26654;SDS011;14278;50.784;4.630;2023-04-01T20:52:25;1.80;;;1.67;;
26654;SDS011;14278;50.784;4.630;2023-04-01T20:57:48;3.30;;;2.50;;
26654;SDS011;14278;50.784;4.630;2023-04-01T21:09:22;2.83;;;2.50;;
26654;SDS011;14278;50.784;4.630;2023-04-01T21:12:19;2.60;;;2.40;;
26654;SDS011;14278;50.784;4.630;2023-04-01T21:28:52;3.57;;;2.80;;
26654;SDS011;14278;50.784;4.630;2023-04-01T21:31:27;2.37;;;2.23;;
26654;SDS011;14278;50.784;4.630;2023-04-01T21:42:33;3.93;;;3.00;;
26654;SDS011;14278;50.784;4.630;2023-04-01T21:56:49;6.73;;;2.93;;
26654;SDS011;14278;50.784;4.630;2023-04-01T21:59:45;3.87;;;3.53;;
26654;SDS011;14278;50.784;4.630;2023-04-01T22:07:59;5.27;;;3.17;;
26654;SDS011;14278;50.784;4.630;2023-04-01T22:13:50;4.47;;;3.10;;
26654;SDS011;14278;50.784;4.630;2023-04-01T22:21:50;3.17;;;2.87;;
26654;SDS011;14278;50.784;4.630;2023-04-01T22:24:32;4.33;;;3.23;;
26654;SDS011;14278;50.784;4.630;2023-04-01T22:27:16;4.20;;;3.20;;
26654;SDS011;14278;50.784;4.630;2023-04-01T22:32:47;4.97;;;4.00;;
26654;SDS011;14278;50.784;4.630;2023-04-01T22:38:06;5.57;;;5.03;;
26654;SDS011;14278;50.784;4.630;2023-04-01T22:40:53;8.00;;;5.70;;
26654;SDS011;14278;50.784;4.630;2023-04-01T22:43:24;8.23;;;5.93;;
26654;SDS011;14278;50.784;4.630;2023-04-01T22:49:00;10.77;;;5.83;;
26654;SDS011;14278;50.784;4.630;2023-04-01T22:57:04;7.23;;;5.47;;
26654;SDS011;14278;50.784;4.630;2023-04-01T23:00:00;7.33;;;5.43;;
26654;SDS011;14278;50.784;4.630;2023-04-01T23:02:41;6.67;;;5.97;;
26654;SDS011;14278;50.784;4.630;2023-04-01T23:05:11;6.90;;;6.00;;
26654;SDS011;14278;50.784;4.630;2023-04-01T23:07:54;6.67;;;5.93;;
26654;SDS011;14278;50.784;4.630;2023-04-01T23:10:39;7.00;;;5.83;;
26654;SDS011;14278;50.784;4.630;2023-04-01T23:13:19;5.13;;;4.63;;
26654;SDS011;14278;50.784;4.630;2023-04-01T23:15:53;5.87;;;5.33;;
26654;SDS011;14278;50.784;4.630;2023-04-01T23:18:32;7.40;;;4.80;;
26654;SDS011;14278;50.784;4.630;2023-04-01T23:21:14;7.40;;;5.17;;
26654;SDS011;14278;50.784;4.630;2023-04-01T23:24:00;9.07;;;4.43;;
26654;SDS011;14278;50.784;4.630;2023-04-01T23:29:24;6.17;;;4.50;;
26654;SDS011;14278;50.784;4.630;2023-04-01T23:32:00;5.70;;;3.93;;
26654;SDS011;14278;50.784;4.630;2023-04-01T23:34:32;4.37;;;3.87;;
26654;SDS011;14278;50.784;4.630;2023-04-01T23:37:04;4.37;;;3.97;;
26654;SDS011;14278;50.784;4.630;2023-04-01T23:44:53;4.20;;;3.30;;
26654;SDS011;14278;50.784;4.630;2023-04-01T23:47:26;4.80;;;3.90;;
26654;SDS011;14278;50.784;4.630;2023-04-01T23:50:02;4.43;;;3.53;;
26654;SDS011;14278;50.784;4.630;2023-04-01T23:52:36;5.97;;;5.07;;
26654;SDS011;14278;50.784;4.630;2023-04-01T23:57:36;5.10;;;4.60;;
